createdAt,value
2022-09-29T00:05:13.274Z,8.2
2022-09-29T00:20:55.623Z,9.3
2022-09-29T00:36:38.367Z,9.2
2022-09-29T00:52:21.255Z,8.89
2022-09-29T01:08:03.612Z,8.7
2022-09-29T01:23:46.181Z,8.89
2022-09-29T01:39:28.475Z,8.7
2022-09-29T01:55:11.308Z,11.4
2022-09-29T02:10:54.420Z,15.2
2022-09-29T02:26:37.413Z,14.9
2022-09-29T02:42:20.177Z,15.4
2022-09-29T02:58:02.811Z,17.6
2022-09-29T03:13:45.398Z,18.29
2022-09-29T03:29:27.856Z,18.6
2022-09-29T03:45:10.327Z,17
2022-09-29T04:00:52.944Z,18.9
2022-09-29T04:16:35.701Z,17.1
2022-09-29T04:32:17.893Z,17.6
2022-09-29T04:48:00.399Z,17.79
2022-09-29T05:03:43.035Z,18.5
2022-09-29T05:19:25.179Z,16.2
2022-09-29T05:35:08.260Z,16.4
2022-09-29T05:50:51.197Z,18.79
2022-09-29T06:06:33.777Z,17.29
2022-09-29T06:22:16.008Z,18.29
2022-09-29T06:37:58.736Z,17.29
2022-09-29T06:53:41.075Z,15.8
2022-09-29T07:09:23.999Z,15.6
2022-09-29T07:25:06.195Z,15.1
2022-09-29T07:40:49.057Z,14.5
2022-09-29T07:56:32.059Z,13.2
2022-09-29T08:12:15.139Z,12.5
2022-09-29T08:27:58.043Z,13.1
2022-09-29T08:43:40.345Z,16
2022-09-29T08:59:22.562Z,12.1
2022-09-29T09:15:04.665Z,19
2022-09-29T09:30:46.748Z,9.89
2022-09-29T09:46:29.275Z,9.5
2022-09-29T10:02:11.745Z,8.7
2022-09-29T10:17:54.305Z,9.3
2022-09-29T10:33:37.185Z,8.39
2022-09-29T10:49:20.083Z,7.8
2022-09-29T10:50:07.352Z,7.8
2022-09-29T11:05:50.121Z,7.2
2022-09-29T11:21:32.597Z,6
2022-09-29T11:37:15.129Z,6.2
2022-09-29T11:52:57.943Z,7
2022-09-29T12:08:40.306Z,6.8
2022-09-29T12:24:22.889Z,5.6
2022-09-29T12:40:05.274Z,8.3
2022-09-29T12:55:47.970Z,4.9
2022-09-29T13:11:30.316Z,4
2022-09-29T13:27:13.136Z,2.9
2022-09-29T13:42:55.725Z,2.2
2022-09-29T13:58:37.997Z,2.3
2022-09-29T14:14:19.968Z,1.1
2022-09-29T14:30:02.194Z,2.2
2022-09-29T14:45:44.228Z,2.09
2022-09-29T15:01:26.409Z,2
2022-09-29T15:17:08.512Z,2.2
2022-09-29T15:32:50.689Z,1.5
2022-09-29T15:48:33.634Z,2.09
2022-09-29T16:04:16.004Z,2.3
2022-09-29T16:19:58.155Z,3.2
2022-09-29T16:35:40.423Z,2.5
2022-09-29T16:51:23.171Z,3.9
2022-09-29T17:07:05.790Z,3.4
2022-09-29T17:22:48.030Z,3.6
2022-09-29T17:38:30.406Z,4.4
2022-09-29T17:54:13.166Z,6.2
2022-09-29T18:09:55.932Z,7.8
2022-09-29T18:25:38.382Z,7
2022-09-29T18:41:21.420Z,8.1
2022-09-29T18:57:03.548Z,23.2
2022-09-29T19:12:46.336Z,11
2022-09-29T19:28:28.970Z,11.1
2022-09-29T19:44:10.989Z,14.2
2022-09-29T19:59:53.994Z,12.2
2022-09-29T20:15:36.844Z,12.1
2022-09-29T20:31:19.520Z,14.4
2022-09-29T20:47:02.547Z,13.4
2022-09-29T21:02:45.080Z,13.4
2022-09-29T21:18:27.445Z,12.2
2022-09-29T21:34:09.763Z,9.89
2022-09-29T21:49:52.298Z,9.89
2022-09-29T22:05:35.276Z,11.2
2022-09-29T22:21:17.571Z,9.6
2022-09-29T22:37:00.614Z,9.8
2022-09-29T22:52:43.011Z,9.8
2022-09-29T23:08:25.874Z,10.7
2022-09-29T23:24:08.577Z,11.3
2022-09-29T23:39:51.662Z,10.3
2022-09-29T23:55:33.948Z,12.1
